createdAt,value
2023-03-27T00:01:17.729Z,22.45
2023-03-27T00:06:21.916Z,22.42
2023-03-27T00:11:26.575Z,22.38
2023-03-27T00:16:30.483Z,22.34
2023-03-27T00:21:34.168Z,22.31
2023-03-27T00:26:40.463Z,22.28
2023-03-27T00:31:43.398Z,22.23
2023-03-27T00:36:50.982Z,22.20
2023-03-27T00:46:58.653Z,22.11
2023-03-27T00:52:04.116Z,22.08
2023-03-27T00:57:13.695Z,22.06
2023-03-27T01:02:18.234Z,22.01
2023-03-27T01:07:22.618Z,21.99
2023-03-27T01:12:38.819Z,21.96
2023-03-27T01:17:58.664Z,21.91
2023-03-27T01:23:59.118Z,21.89
2023-03-27T01:29:11.487Z,21.85
2023-03-27T01:34:42.651Z,21.82
2023-03-27T01:39:57.701Z,21.78
2023-03-27T01:45:06.811Z,21.77
2023-03-27T01:50:18.280Z,21.74
2023-03-27T01:55:27.641Z,21.72
2023-03-27T02:00:51.128Z,21.68
2023-03-27T02:06:00.148Z,21.65
2023-03-27T02:11:05.570Z,21.63
2023-03-27T02:16:12.389Z,21.62
2023-03-27T02:21:15.623Z,21.58
2023-03-27T02:26:21.348Z,21.56
2023-03-27T02:31:38.401Z,21.55
2023-03-27T02:36:48.326Z,21.52
2023-03-27T02:41:58.119Z,21.49
2023-03-27T02:47:19.272Z,21.48
2023-03-27T02:52:34.728Z,21.46
2023-03-27T02:57:40.011Z,21.43
2023-03-27T03:03:08.119Z,21.43
2023-03-27T03:08:11.715Z,21.39
2023-03-27T03:13:16.050Z,21.37
2023-03-27T03:18:20.046Z,21.35
2023-03-27T03:23:24.108Z,21.35
2023-03-27T03:28:29.126Z,21.31
2023-03-27T03:33:32.934Z,21.30
2023-03-27T03:38:38.108Z,21.27
2023-03-27T03:43:47.035Z,21.25
2023-03-27T03:48:49.910Z,21.24
2023-03-27T03:53:52.708Z,21.21
2023-03-27T03:58:57.232Z,21.20
2023-03-27T04:03:59.991Z,21.17
2023-03-27T04:09:08.806Z,21.16
2023-03-27T04:14:29.871Z,21.13
2023-03-27T04:19:35.844Z,21.13
2023-03-27T04:24:44.677Z,21.11
2023-03-27T04:29:51.031Z,21.09
2023-03-27T04:35:25.833Z,21.08
2023-03-27T04:40:38.235Z,21.07
2023-03-27T04:45:44.678Z,21.06
2023-03-27T04:50:49.765Z,21.04
2023-03-27T04:56:06.135Z,21.00
2023-03-27T05:01:14.357Z,20.98
2023-03-27T05:06:23.412Z,20.96
2023-03-27T05:11:26.958Z,20.96
2023-03-27T05:16:31.389Z,20.92
2023-03-27T05:21:37.589Z,20.90
2023-03-27T05:26:44.177Z,20.89
2023-03-27T05:31:49.082Z,20.87
2023-03-27T05:37:16.427Z,20.83
2023-03-27T05:42:43.379Z,20.82
2023-03-27T05:47:49.643Z,20.80
2023-03-27T05:52:56.034Z,20.78
2023-03-27T05:58:05.998Z,20.76
2023-03-27T06:03:12.491Z,20.75
2023-03-27T06:08:47.617Z,20.75
2023-03-27T06:13:50.866Z,20.73
2023-03-27T06:18:59.494Z,20.73
2023-03-27T06:24:04.036Z,20.75
2023-03-27T06:29:08.057Z,20.76
2023-03-27T06:34:15.186Z,20.73
2023-03-27T06:39:24.673Z,20.72
2023-03-27T06:44:28.806Z,20.72
2023-03-27T06:49:47.636Z,20.70
2023-03-27T06:54:55.188Z,20.72
2023-03-27T07:00:00.879Z,20.71
2023-03-27T07:05:26.433Z,20.71
2023-03-27T07:10:29.561Z,20.71
2023-03-27T07:15:32.808Z,20.73
2023-03-27T07:20:37.064Z,20.72
2023-03-27T07:25:46.320Z,20.74
2023-03-27T07:30:58.676Z,20.76
2023-03-27T07:36:07.681Z,20.77
2023-03-27T07:41:20.997Z,20.75
2023-03-27T07:46:36.048Z,20.71
2023-03-27T07:51:41.172Z,20.72
2023-03-27T07:56:44.567Z,20.72
2023-03-27T08:02:07.500Z,20.73
2023-03-27T08:07:15.450Z,20.73
2023-03-27T08:12:19.637Z,20.74
2023-03-27T08:17:33.826Z,20.74
2023-03-27T08:22:39.456Z,20.74
2023-03-27T08:28:03.284Z,20.75
2023-03-27T08:33:09.766Z,20.76
2023-03-27T08:38:25.740Z,20.79
2023-03-27T08:44:04.071Z,20.81
2023-03-27T08:49:12.570Z,20.86
2023-03-27T08:54:21.443Z,20.89
2023-03-27T08:59:27.983Z,20.89
2023-03-27T09:04:41.092Z,20.88
2023-03-27T09:09:55.874Z,18.77
2023-03-27T09:15:05.742Z,18.16
2023-03-27T09:20:20.330Z,17.88
2023-03-27T09:25:31.467Z,17.29
2023-03-27T09:30:36.441Z,16.78
2023-03-27T09:35:59.403Z,16.62
2023-03-27T09:41:08.569Z,16.75
2023-03-27T09:46:19.337Z,16.19
2023-03-27T09:51:42.011Z,16.39
2023-03-27T09:57:12.437Z,16.29
2023-03-27T10:02:19.479Z,16.34
2023-03-27T10:07:25.798Z,17.86
2023-03-27T10:12:55.775Z,18.56
2023-03-27T10:18:21.164Z,18.91
2023-03-27T10:23:27.508Z,19.19
2023-03-27T10:28:38.838Z,19.41
2023-03-27T10:33:45.429Z,19.54
2023-03-27T10:39:15.538Z,19.69
2023-03-27T10:44:54.468Z,19.75
2023-03-27T10:50:09.279Z,19.84
2023-03-27T10:55:31.093Z,19.91
2023-03-27T11:00:39.796Z,19.92
2023-03-27T11:05:48.310Z,19.96
2023-03-27T11:11:09.640Z,20.00
2023-03-27T11:16:24.761Z,20.06
2023-03-27T11:21:51.161Z,20.14
2023-03-27T11:27:06.030Z,20.21
2023-03-27T11:32:21.389Z,20.21
2023-03-27T11:37:40.638Z,20.18
2023-03-27T11:42:46.520Z,20.15
2023-03-27T11:48:25.621Z,20.23
2023-03-27T11:53:48.214Z,20.36
2023-03-27T11:59:10.971Z,20.38
2023-03-27T12:04:41.556Z,18.15
2023-03-27T12:10:11.990Z,18.48
2023-03-27T12:15:55.996Z,19.53
2023-03-27T12:21:10.601Z,19.79
2023-03-27T12:26:35.015Z,20.04
2023-03-27T12:32:05.967Z,20.24
2023-03-27T12:37:14.233Z,20.38
2023-03-27T12:42:44.052Z,20.50
2023-03-27T12:48:17.806Z,20.58
2023-03-27T12:53:54.877Z,20.62
2023-03-27T12:58:59.816Z,20.65
2023-03-27T13:04:26.358Z,20.65
2023-03-27T13:09:54.478Z,20.64
2023-03-27T13:15:23.677Z,20.52
2023-03-27T13:20:41.111Z,20.45
2023-03-27T13:26:02.915Z,20.45
2023-03-27T13:31:14.672Z,20.42
2023-03-27T13:36:48.875Z,20.38
2023-03-27T13:42:08.089Z,20.36
2023-03-27T13:48:02.817Z,20.56
2023-03-27T13:53:33.850Z,20.81
2023-03-27T13:59:27.805Z,21.21
2023-03-27T14:05:05.682Z,21.18
2023-03-27T14:10:25.303Z,21.11
2023-03-27T14:16:04.888Z,21.02
2023-03-27T14:21:24.466Z,21.15
2023-03-27T14:26:37.878Z,21.33
2023-03-27T14:31:44.188Z,20.75
2023-03-27T14:36:56.303Z,21.29
2023-03-27T14:42:05.578Z,21.71
2023-03-27T14:47:17.715Z,21.67
2023-03-27T14:52:26.819Z,21.56
2023-03-27T14:57:50.419Z,21.60
2023-03-27T15:02:57.097Z,21.57
2023-03-27T15:08:01.242Z,21.58
2023-03-27T15:13:36.728Z,21.72
2023-03-27T15:18:56.202Z,22.18
2023-03-27T15:24:05.436Z,22.36
2023-03-27T15:29:17.938Z,22.23
2023-03-27T15:34:34.011Z,22.41
2023-03-27T15:39:39.345Z,22.59
2023-03-27T15:44:43.834Z,22.79
2023-03-27T15:49:48.070Z,23.01
2023-03-27T15:54:55.834Z,23.02
2023-03-27T16:00:08.466Z,22.83
2023-03-27T16:05:18.583Z,22.74
2023-03-27T16:10:32.660Z,22.68
2023-03-27T16:15:38.068Z,22.78
2023-03-27T16:20:42.457Z,22.20
2023-03-27T16:25:45.424Z,22.10
2023-03-27T16:30:48.894Z,22.37
2023-03-27T16:35:53.118Z,22.67
2023-03-27T16:40:55.871Z,22.89
2023-03-27T16:45:58.873Z,22.68
2023-03-27T16:51:03.107Z,22.39
2023-03-27T16:56:06.525Z,22.32
2023-03-27T17:01:10.349Z,22.32
2023-03-27T17:06:15.120Z,22.14
2023-03-27T17:11:17.891Z,22.20
2023-03-27T17:16:20.789Z,22.46
2023-03-27T17:21:26.159Z,22.57
2023-03-27T17:26:31.959Z,22.59
2023-03-27T17:31:35.359Z,22.65
2023-03-27T17:36:45.207Z,22.71
2023-03-27T17:41:50.856Z,22.71
2023-03-27T17:46:53.789Z,22.62
2023-03-27T17:51:58.147Z,22.69
2023-03-27T17:57:01.267Z,22.67
2023-03-27T18:02:04.161Z,22.62
2023-03-27T18:07:08.495Z,22.64
2023-03-27T18:12:11.723Z,22.66
2023-03-27T18:17:15.769Z,22.66
2023-03-27T18:22:19.897Z,22.64
2023-03-27T18:27:22.643Z,22.65
2023-03-27T18:32:26.170Z,22.65
2023-03-27T18:37:30.292Z,22.65
2023-03-27T18:42:33.032Z,22.65
2023-03-27T18:47:37.025Z,22.66
2023-03-27T18:52:41.630Z,22.64
2023-03-27T18:57:45.231Z,22.66
2023-03-27T19:02:48.842Z,22.69
2023-03-27T19:07:57.559Z,22.69
2023-03-27T19:13:01.841Z,22.68
2023-03-27T19:18:28.310Z,22.70
2023-03-27T19:23:55.672Z,22.72
2023-03-27T19:29:08.749Z,22.73
2023-03-27T19:34:11.690Z,22.74
2023-03-27T19:39:16.186Z,22.74
2023-03-27T19:44:21.068Z,22.75
2023-03-27T19:49:23.819Z,22.79
2023-03-27T19:54:54.969Z,22.78
2023-03-27T19:59:59.562Z,22.79
2023-03-27T20:05:02.375Z,22.80
2023-03-27T20:10:07.337Z,22.80
2023-03-27T20:15:12.435Z,22.82
2023-03-27T20:20:19.737Z,22.78
2023-03-27T20:25:24.079Z,22.80
2023-03-27T20:30:27.521Z,22.82
2023-03-27T20:35:31.836Z,22.81
2023-03-27T20:40:52.772Z,22.80
2023-03-27T20:45:59.950Z,22.79
2023-03-27T20:51:06.897Z,22.81
2023-03-27T20:56:14.135Z,22.80
2023-03-27T21:01:19.424Z,22.83
2023-03-27T21:06:22.332Z,22.82
2023-03-27T21:11:26.599Z,22.83
2023-03-27T21:16:29.788Z,22.83
2023-03-27T21:21:33.157Z,22.82
2023-03-27T21:26:37.369Z,22.81
2023-03-27T21:31:41.192Z,22.79
2023-03-27T21:36:44.126Z,22.79
2023-03-27T21:41:48.315Z,22.80
2023-03-27T21:46:51.116Z,22.79
2023-03-27T21:51:54.035Z,22.78
2023-03-27T21:56:58.145Z,22.77
2023-03-27T22:02:01.642Z,22.79
2023-03-27T22:07:04.517Z,22.79
2023-03-27T22:12:09.256Z,22.74
2023-03-27T22:17:12.032Z,22.59
2023-03-27T22:22:14.795Z,22.46
2023-03-27T22:27:18.894Z,22.35
2023-03-27T22:32:22.289Z,22.20
2023-03-27T22:37:25.134Z,22.06
2023-03-27T22:42:31.791Z,21.93
2023-03-27T22:47:35.475Z,21.82
2023-03-27T22:52:38.280Z,21.77
2023-03-27T22:57:42.478Z,21.67
2023-03-27T23:02:45.280Z,21.61
2023-03-27T23:07:48.050Z,21.50
2023-03-27T23:12:52.262Z,21.46
2023-03-27T23:17:55.402Z,21.37
2023-03-27T23:22:58.594Z,21.31
2023-03-27T23:28:02.664Z,21.22
2023-03-27T23:33:05.459Z,21.17
2023-03-27T23:38:08.163Z,21.08
2023-03-27T23:43:12.341Z,21.04
2023-03-27T23:48:15.298Z,20.99
2023-03-27T23:53:18.088Z,20.97
2023-03-27T23:58:22.204Z,20.89
